Terminal Aerodrome Forecast
Issued by NWS

Home | Current Version | Previous Version | Text Only | Print | Product List | Glossary Off
Versions: 1 2 3 4 5 6 7 8 9 10 11 12 13 14 15 16 17 18 19 20 21 22 23 24

000
FTUS42 KMHX 051901 AAB
TAFPGV
TAF AMD
KPGV 051901Z 0519/0618 03009KT P6SM SHRA VCTS BKN008 OVC015CB
     FM060000 35005KT 6SM BR OVC012
     FM060400 VRB04KT 3SM -SHRA OVC006
     FM061600 31008KT P6SM OVC020
      AMD LTD TO CLD VIS AND WIND=

USA.gov is the U.S. government's official web portal to all federal, state and local government web resources and services.